Time;durP1;ratioP1;P1;durP2;ratioP2;P2;SDS_P1;SDS_P2;PMS_P1;PMS_P2;Temp;Humidity;BMP_temperature;BMP_pressure;BME280_temperature;BME280_humidity;BME280_pressure;Samples;Min_cycle;Max_cycle;Signal;HPM_P1;HPM_P2
2021/09/29 00:01:44;;;;;;;;;;;;;;;-142.75;94.03;77015.19;5013974;28;19924;-77
2021/09/29 00:04:09;;;;;;;;;;;;;;;-142.75;94.46;77009.28;5013756;28;19917;-78
2021/09/29 00:06:34;;;;;;;;;;;;;;;-142.75;95.26;77013.22;5031529;28;19921;-78
2021/09/29 00:09:00;;;;;;;;;;;;;;;-142.75;95.93;77015.19;5031556;28;19971;-77
2021/09/29 00:11:25;;;;;;;;;;;;;;;-142.75;95.38;77009.28;5032064;28;19931;-77
2021/09/29 00:13:50;;;;;;;;;;;;;;;-142.75;94.73;76995.50;5013446;28;19948;-78
2021/09/29 00:16:15;;;;;;;;;;;;;;;-142.75;95.31;77013.22;5014199;28;20366;-78
2021/09/29 00:18:41;;;;;;;;;;;;;;;-142.75;95.42;77001.41;5012477;28;19917;-77
2021/09/29 00:21:06;;;;;;;;;;;;;;;-142.75;95.58;76997.47;5013697;28;19968;-78
2021/09/29 00:23:31;;;;;;;;;;;;;;;-142.75;96.47;77013.22;5031420;28;19959;-78
2021/09/29 00:25:57;;;;;;;;;;;;;;;-142.75;96.54;77001.41;5031078;28;19925;-78
2021/09/29 00:28:22;;;;;;;;;;;;;;;-142.75;96.72;77001.41;5013412;28;20367;-75
2021/09/29 00:30:50;;;;;;;;;;;;;;;-142.75;97.19;77015.19;5031289;28;19964;-77
2021/09/29 00:33:19;;;;;;;;;;;;;;;-142.75;98.28;77021.09;5013587;28;20294;-78
2021/09/29 00:35:45;;;;;;;;;;;;;;;-142.75;97.87;77015.19;5010378;28;19928;-77
2021/09/29 00:38:10;;;;;;;;;;;;;;;-142.75;97.96;77015.19;5030748;28;20473;-77
2021/09/29 00:40:35;;;;;;;;;;;;;;;-142.75;97.99;77011.25;5013072;28;19993;-78
2021/09/29 00:43:00;;;;;;;;;;;;;;;-142.75;98.50;76999.44;5031073;28;19968;-78
2021/09/29 00:45:25;;;;;;;;;;;;;;;-142.75;98.63;77007.31;5013868;28;19971;-77
2021/09/29 00:47:51;;;;;;;;;;;;;;;-142.75;97.96;77007.31;5011757;28;20394;-77
2021/09/29 00:50:16;;;;;;;;;;;;;;;-142.75;98.38;77001.41;5030560;28;19923;-78
2021/09/29 00:52:41;;;;;;;;;;;;;;;-142.75;99.93;77009.28;5030659;28;19924;-77
2021/09/29 00:55:09;;;;;;;;;;;;;;;-142.75;99.63;77019.13;5012917;28;19957;-77
2021/09/29 00:57:34;;;;;;;;;;;;;;;-142.75;100.00;77007.31;5030649;28;20454;-77
2021/09/29 00:59:59;;;;;;;;;;;;;;;-142.75;99.35;76999.44;5029277;28;19924;-77
2021/09/29 01:02:25;;;;;;;;;;;;;;;-142.75;98.68;76985.66;5012759;28;20000;-77
2021/09/29 01:04:50;;;;;;;;;;;;;;;-142.75;98.50;76989.59;5012386;28;19971;-77
2021/09/29 01:07:23;;;;;;;;;;;;;;;-142.75;98.70;76991.56;5013128;28;19924;-77
2021/09/29 01:10:05;;;;;;;;;;;;;;;-142.75;98.89;76993.53;5029727;28;20425;-77
2021/09/29 01:12:39;;;;;;;;;;;;;;;-142.75;98.72;76987.63;5028438;28;19924;-78
2021/09/29 01:15:09;;;;;;;;;;;;;;;-142.75;98.02;76981.72;5031232;28;20393;-77
2021/09/29 01:17:39;;;;;;;;;;;;;;;-142.75;99.07;76993.53;5012503;28;20301;-77
2021/09/29 01:20:07;;;;;;;;;;;;;;;-142.75;98.17;76975.81;5030125;28;19932;-78
2021/09/29 01:22:39;;;;;;;;;;;;;;;-142.75;98.79;76983.69;5012728;28;19925;-77
2021/09/29 01:25:06;;;;;;;;;;;;;;;-142.75;99.91;76987.63;5029853;28;19947;-78
2021/09/29 01:27:32;;;;;;;;;;;;;;;-142.75;99.37;76979.75;5010835;28;19917;-77
2021/09/29 01:29:58;;;;;;;;;;;;;;;-142.75;99.93;76995.50;5029843;28;19921;-76
2021/09/29 01:32:23;;;;;;;;;;;;;;;-142.75;99.78;76979.75;5029753;28;20020;-77
2021/09/29 01:34:49;;;;;;;;;;;;;;;-142.75;99.62;76967.94;5029281;28;19967;-77
2021/09/29 01:37:14;;;;;;;;;;;;;;;-142.75;99.18;76964.00;5029740;28;19974;-76
2021/09/29 01:39:40;;;;;;;;;;;;;;;-142.75;98.73;76948.25;5012945;28;19924;-78
2021/09/29 01:42:05;;;;;;;;;;;;;;;-142.75;97.99;76940.38;5030128;28;19917;-78
2021/09/29 01:44:31;;;;;;;;;;;;;;;-142.75;97.54;76926.59;5030657;28;19931;-78
2021/09/29 01:46:57;;;;;;;;;;;;;;;-142.75;96.00;76924.63;5029977;28;19917;-77
2021/09/29 01:49:22;;;;;;;;;;;;;;;-142.75;97.03;76942.34;5030038;28;20268;-76
2021/09/29 01:51:49;;;;;;;;;;;;;;;-142.75;96.86;76920.69;5012235;28;20024;-77
2021/09/29 01:54:15;;;;;;;;;;;;;;;-142.75;97.31;76938.41;5029268;28;20371;-79
2021/09/29 01:56:41;;;;;;;;;;;;;;;-142.75;97.84;76944.31;5029672;28;20027;-79
2021/09/29 01:59:06;;;;;;;;;;;;;;;-142.75;97.74;76926.59;5012049;28;20027;-79
2021/09/29 02:01:36;;;;;;;;;;;;;;;-142.75;99.19;76948.25;5029525;28;19917;-76
2021/09/29 02:04:01;;;;;;;;;;;;;;;-142.75;99.12;76944.31;5029514;28;20016;-78
2021/09/29 02:06:26;;;;;;;;;;;;;;;-142.75;99.42;76956.13;5029815;28;20492;-77
2021/09/29 02:08:52;;;;;;;;;;;;;;;-142.75;99.85;76944.31;5029275;28;20000;-76
2021/09/29 02:11:17;;;;;;;;;;;;;;;-142.75;100.00;76965.97;5029613;28;19921;-76
2021/09/29 02:13:42;;;;;;;;;;;;;;;-142.75;100.00;76956.13;5029971;28;19928;-77
2021/09/29 02:16:07;;;;;;;;;;;;;;;-142.75;100.00;76944.31;5012525;28;20295;-77
2021/09/29 02:18:32;;;;;;;;;;;;;;;-142.75;99.98;76932.50;5029639;28;19917;-78
2021/09/29 02:20:57;;;;;;;;;;;;;;;-142.75;99.65;76946.28;5029528;28;20023;-76
2021/09/29 02:23:23;;;;;;;;;;;;;;;-142.75;100.00;76944.31;5011796;28;20314;-77
2021/09/29 02:25:48;;;;;;;;;;;;;;;-142.75;100.00;76924.63;5011591;28;19917;-78
2021/09/29 02:28:13;;;;;;;;;;;;;;;-142.75;99.53;76922.66;5055242;22;20393;-75
2021/09/29 02:30:38;;;;;;;;;;;;;;;-142.75;99.79;76920.69;5035361;28;19924;-76
2021/09/29 02:33:05;;;;;;;;;;;;;;;-142.75;99.62;76910.84;5044874;28;20003;-76
2021/09/29 02:35:30;;;;;;;;;;;;;;;-142.75;100.00;76940.38;5039061;28;20070;-77
2021/09/29 02:37:56;;;;;;;;;;;;;;;-142.75;100.00;76906.91;5059408;28;20014;-76
2021/09/29 02:40:22;;;;;;;;;;;;;;;-142.75;100.00;76908.88;5041057;28;20415;-76
2021/09/29 02:42:47;;;;;;;;;;;;;;;-142.75;100.00;76914.78;5062224;28;20011;-77
2021/09/29 02:45:13;;;;;;;;;;;;;;;-142.75;99.68;76918.72;5062095;28;20058;-77
2021/09/29 02:47:38;;;;;;;;;;;;;;;-142.75;99.54;76902.97;5059916;28;19917;-77
2021/09/29 02:50:04;;;;;;;;;;;;;;;-142.75;98.67;76901.00;5041897;28;19916;-76
2021/09/29 02:52:29;;;;;;;;;;;;;;;-142.75;98.43;76889.19;5043365;28;20347;-77
2021/09/29 02:54:54;;;;;;;;;;;;;;;-142.75;97.84;76881.31;5060004;28;20011;-78
2021/09/29 02:57:20;;;;;;;;;;;;;;;-142.75;98.11;76885.25;5040211;28;20370;-76
2021/09/29 02:59:45;;;;;;;;;;;;;;;-142.75;98.13;76877.38;5045247;28;20024;-77
2021/09/29 03:02:10;;;;;;;;;;;;;;;-142.75;97.61;76873.44;5061754;28;20447;-77
2021/09/29 03:04:35;;;;;;;;;;;;;;;-142.75;97.52;76875.41;5054139;28;19995;-75
2021/09/29 03:07:00;;;;;;;;;;;;;;;-142.75;97.93;76875.41;5059324;28;20011;-75
2021/09/29 03:09:26;;;;;;;;;;;;;;;-142.75;100.00;76871.47;5063589;28;20266;-76
2021/09/29 03:11:51;;;;;;;;;;;;;;;-142.75;100.00;76867.53;5044523;28;19917;-76
2021/09/29 03:14:16;;;;;;;;;;;;;;;-142.75;100.00;76869.50;5068563;28;19916;-77
2021/09/29 03:16:41;;;;;;;;;;;;;;;-142.75;100.00;76869.50;5054033;28;19939;-76
2021/09/29 03:19:06;;;;;;;;;;;;;;;-142.75;100.00;76877.38;5067930;28;19921;-76
2021/09/29 03:21:32;;;;;;;;;;;;;;;-142.75;100.00;76873.44;5071881;28;20377;-76
2021/09/29 03:23:57;;;;;;;;;;;;;;;-142.75;100.00;76877.38;5068218;28;20019;-76
2021/09/29 03:26:22;;;;;;;;;;;;;;;-142.75;100.00;76877.38;5060475;28;19960;-76
2021/09/29 03:28:48;;;;;;;;;;;;;;;-142.75;100.00;76873.44;5048087;28;20515;-76
2021/09/29 03:31:13;;;;;;;;;;;;;;;-142.75;100.00;76873.44;5051017;28;19916;-75
2021/09/29 03:33:38;;;;;;;;;;;;;;;-142.75;100.00;76869.50;5043646;28;20394;-75
2021/09/29 03:36:04;;;;;;;;;;;;;;;-142.75;100.00;76853.75;5063962;28;19928;-76
2021/09/29 03:38:29;;;;;;;;;;;;;;;-142.75;100.00;76859.66;5044850;28;19917;-78
2021/09/29 03:40:54;;;;;;;;;;;;;;;-142.75;100.00;76857.69;5038112;28;19968;-78
2021/09/29 03:43:20;;;;;;;;;;;;;;;-142.75;100.00;76869.50;5043463;28;19960;-79
2021/09/29 03:45:46;;;;;;;;;;;;;;;-142.75;100.00;76893.13;5043452;28;19917;-83
2021/09/29 03:48:11;;;;;;;;;;;;;;;-142.75;100.00;76881.31;5049870;28;19960;-80
2021/09/29 03:50:36;;;;;;;;;;;;;;;-142.75;100.00;76887.22;5062387;28;19916;-81
2021/09/29 03:53:01;;;;;;;;;;;;;;;-142.75;100.00;76895.09;5060255;28;19917;-81
2021/09/29 03:55:27;;;;;;;;;;;;;;;-142.75;100.00;76893.13;5052033;28;20378;-81
2021/09/29 03:57:52;;;;;;;;;;;;;;;-142.75;100.00;76873.44;5047225;28;19916;-78
2021/09/29 04:00:17;;;;;;;;;;;;;;;-142.75;100.00;76891.16;5041846;28;19999;-81
2021/09/29 04:02:42;;;;;;;;;;;;;;;-142.75;100.00;76899.03;5048744;28;20091;-82
2021/09/29 04:05:09;;;;;;;;;;;;;;;-142.75;100.00;76875.41;5047157;28;20105;-82
2021/09/29 04:07:40;;;;;;;;;;;;;;;-142.75;100.00;76897.06;5063240;28;19917;-82
2021/09/29 04:10:06;;;;;;;;;;;;;;;-142.75;100.00;76897.06;5045515;28;19917;-82
2021/09/29 04:12:31;;;;;;;;;;;;;;;-142.75;100.00;76893.13;5065448;28;20404;-81
2021/09/29 04:14:56;;;;;;;;;;;;;;;-142.75;100.00;76891.16;5063995;28;19960;-82
2021/09/29 04:17:21;;;;;;;;;;;;;;;-142.75;100.00;76885.25;5041096;28;19917;-81
2021/09/29 04:19:47;;;;;;;;;;;;;;;-142.75;100.00;76873.44;5043054;28;19921;-82
2021/09/29 04:22:12;;;;;;;;;;;;;;;-142.75;100.00;76869.50;5050943;28;19999;-82
2021/09/29 04:24:38;;;;;;;;;;;;;;;-142.75;100.00;76853.75;5047112;28;20400;-81
2021/09/29 04:27:04;;;;;;;;;;;;;;;-142.75;100.00;76857.69;5064698;28;19923;-81
2021/09/29 04:29:29;;;;;;;;;;;;;;;-142.75;100.00;76869.50;5045045;28;19917;-81
2021/09/29 04:31:54;;;;;;;;;;;;;;;-142.75;100.00;76867.53;5065979;28;20351;-80
2021/09/29 04:34:20;;;;;;;;;;;;;;;-142.75;100.00;76873.44;5043232;28;19916;-80
2021/09/29 04:36:46;;;;;;;;;;;;;;;-142.75;100.00;76873.44;5050527;28;20390;-79
2021/09/29 04:39:12;;;;;;;;;;;;;;;-142.75;100.00;76871.47;5055703;28;19954;-81
2021/09/29 04:41:37;;;;;;;;;;;;;;;-142.75;100.00;76857.69;5043844;28;19921;-83
2021/09/29 04:44:02;;;;;;;;;;;;;;;-142.75;100.00;76857.69;5051256;28;19921;-84
2021/09/29 04:46:27;;;;;;;;;;;;;;;-142.75;100.00;76869.50;5043696;28;19930;-81
2021/09/29 04:48:56;;;;;;;;;;;;;;;-142.75;100.00;76863.59;5041801;28;19962;-81
2021/09/29 04:51:23;;;;;;;;;;;;;;;-142.75;100.00;76859.66;5061425;28;19950;-82
2021/09/29 04:53:48;;;;;;;;;;;;;;;-142.75;100.00;76853.75;5044739;28;19995;-81
2021/09/29 04:56:14;;;;;;;;;;;;;;;-142.75;100.00;76861.63;5047320;28;20011;-82
2021/09/29 04:58:40;;;;;;;;;;;;;;;-142.75;100.00;76881.31;5061893;28;20326;-81
2021/09/29 05:01:05;;;;;;;;;;;;;;;-142.75;100.00;76875.41;5064349;28;19967;-82
2021/09/29 05:03:31;;;;;;;;;;;;;;;-142.75;100.00;76865.56;5064031;28;19921;-82
2021/09/29 05:05:56;;;;;;;;;;;;;;;-142.75;100.00;76857.69;5049479;28;21366;-82
2021/09/29 05:08:24;;;;;;;;;;;;;;;-142.75;100.00;76859.66;5048084;28;19916;-81
2021/09/29 05:10:54;;;;;;;;;;;;;;;-142.75;100.00;76853.75;5066231;28;20434;-80
2021/09/29 05:13:23;;;;;;;;;;;;;;;-142.75;100.00;76847.84;5056150;28;19944;-81
2021/09/29 05:15:49;;;;;;;;;;;;;;;-142.75;100.00;76861.63;5045407;28;19920;-82
2021/09/29 05:18:15;;;;;;;;;;;;;;;-142.75;100.00;76863.59;5062677;28;19971;-84
2021/09/29 05:20:40;;;;;;;;;;;;;;;-142.75;100.00;76865.56;5048595;28;20393;-83
2021/09/29 05:23:05;;;;;;;;;;;;;;;-142.75;100.00;76863.59;5064200;28;19916;-83
2021/09/29 05:25:30;;;;;;;;;;;;;;;-142.75;100.00;76861.63;5045322;28;19923;-82
2021/09/29 05:27:56;;;;;;;;;;;;;;;-142.75;100.00;76857.69;5045302;28;19924;-82
2021/09/29 05:30:23;;;;;;;;;;;;;;;-142.75;100.00;76863.59;5046274;28;19995;-84
2021/09/29 05:32:48;;;;;;;;;;;;;;;-142.75;100.00;76869.50;5060826;28;19969;-82
2021/09/29 05:35:16;;;;;;;;;;;;;;;-142.75;100.00;76877.38;5066629;28;19920;-81
2021/09/29 05:37:42;;;;;;;;;;;;;;;-142.75;100.00;76883.28;5043614;28;20293;-83
2021/09/29 05:40:07;;;;;;;;;;;;;;;-142.75;100.00;76885.25;5067479;28;19921;-83
2021/09/29 05:42:35;;;;;;;;;;;;;;;-142.75;100.00;76877.38;5039596;28;19979;-84
2021/09/29 05:45:00;;;;;;;;;;;;;;;-142.75;100.00;76869.50;5044098;28;19967;-83
2021/09/29 05:47:25;;;;;;;;;;;;;;;-142.75;100.00;76869.50;5044778;28;20386;-81
2021/09/29 05:49:51;;;;;;;;;;;;;;;-142.75;100.00;76865.56;5046523;28;19924;-86
2021/09/29 05:52:16;;;;;;;;;;;;;;;-142.75;100.00;76861.63;5047375;28;19917;-84
2021/09/29 05:54:41;;;;;;;;;;;;;;;-142.75;100.00;76855.72;5049425;28;20392;-84
2021/09/29 05:57:06;;;;;;;;;;;;;;;-142.75;100.00;76853.75;5068541;28;19927;-83
2021/09/29 05:59:32;;;;;;;;;;;;;;;-142.75;100.00;76849.81;5049072;28;19916;-85
2021/09/29 06:01:57;;;;;;;;;;;;;;;-142.75;100.00;76865.56;5069121;28;19943;-84
2021/09/29 06:04:22;;;;;;;;;;;;;;;-142.75;100.00;76861.63;5046523;28;19916;-85
2021/09/29 06:06:48;;;;;;;;;;;;;;;-142.75;100.00;76853.75;5043068;28;19917;-83
2021/09/29 06:09:13;;;;;;;;;;;;;;;-142.75;100.00;76871.47;5065753;28;19916;-84
2021/09/29 06:11:38;;;;;;;;;;;;;;;-142.75;100.00;76863.59;5048211;28;20003;-84
2021/09/29 06:14:04;;;;;;;;;;;;;;;-142.75;100.00;76851.78;5046764;28;20385;-84
2021/09/29 06:16:30;;;;;;;;;;;;;;;-142.75;100.00;76853.75;5048211;28;19920;-81
2021/09/29 06:18:56;;;;;;;;;;;;;;;-142.75;100.00;76869.50;5069597;28;19917;-83
2021/09/29 06:21:21;;;;;;;;;;;;;;;-142.75;100.00;76863.59;5053769;28;19950;-83
2021/09/29 06:23:46;;;;;;;;;;;;;;;-142.75;100.00;76865.56;5051173;28;19923;-82
2021/09/29 06:26:12;;;;;;;;;;;;;;;-142.75;100.00;76873.44;5051447;28;19970;-83
2021/09/29 06:28:38;;;;;;;;;;;;;;;-142.75;100.00;76873.44;5048675;28;20386;-83
2021/09/29 06:31:04;;;;;;;;;;;;;;;-142.75;100.00;76867.53;5056575;28;20392;-82
2021/09/29 06:33:29;;;;;;;;;;;;;;;-142.75;100.00;76869.50;5069189;28;19962;-81
2021/09/29 06:35:54;;;;;;;;;;;;;;;-142.75;100.00;76865.56;5050314;28;19925;-80
2021/09/29 06:38:19;;;;;;;;;;;;;;;-142.75;100.00;76865.56;5066348;28;19917;-81
2021/09/29 06:40:45;;;;;;;;;;;;;;;-142.75;100.00;76873.44;5046980;28;19917;-81
2021/09/29 06:43:10;;;;;;;;;;;;;;;-142.75;100.00;76867.53;5071353;28;20340;-82
2021/09/29 06:45:38;;;;;;;;;;;;;;;-142.75;100.00;76889.19;5053667;28;19951;-82
2021/09/29 06:48:04;;;;;;;;;;;;;;;-142.75;100.00;76881.31;5046529;28;19948;-82
2021/09/29 06:50:29;;;;;;;;;;;;;;;-142.75;100.00;76893.13;5068464;28;19924;-81
2021/09/29 06:52:54;;;;;;;;;;;;;;;-142.75;100.00;76883.28;5070209;28;19924;-84
2021/09/29 06:55:19;;;;;;;;;;;;;;;-142.75;100.00;76875.41;5056919;28;20027;-82
2021/09/29 06:57:45;;;;;;;;;;;;;;;-142.75;100.00;76881.31;5056520;28;19967;-87
2021/09/29 07:00:10;;;;;;;;;;;;;;;-142.75;100.00;76881.31;5046431;28;19917;-82
2021/09/29 07:02:40;;;;;;;;;;;;;;;-142.75;100.00;76889.19;5044821;28;20317;-83
2021/09/29 07:05:05;;;;;;;;;;;;;;;-142.75;100.00;76897.06;5046147;28;19917;-83
2021/09/29 07:07:32;;;;;;;;;;;;;;;-142.75;100.00;76895.09;5069865;28;19916;-84
2021/09/29 07:09:57;;;;;;;;;;;;;;;-142.75;100.00;76891.16;5057888;28;19947;-85
2021/09/29 07:12:22;;;;;;;;;;;;;;;-142.75;100.00;76901.00;5044372;28;20332;-82
2021/09/29 07:14:47;;;;;;;;;;;;;;;-142.75;100.00;76916.75;5054729;28;20015;-82
2021/09/29 07:17:13;;;;;;;;;;;;;;;-142.75;100.00;76904.94;5067018;28;19963;-82
2021/09/29 07:19:39;;;;;;;;;;;;;;;-142.75;100.00;76910.84;5069563;28;19921;-82
2021/09/29 07:22:04;;;;;;;;;;;;;;;-142.75;100.00;76916.75;5065364;28;19916;-81
2021/09/29 07:24:30;;;;;;;;;;;;;;;-142.75;100.00;76924.63;5063553;28;19923;-80
2021/09/29 07:26:57;;;;;;;;;;;;;;;-142.75;100.00;76932.50;5068655;28;19985;-88
2021/09/29 07:29:22;;;;;;;;;;;;;;;-142.75;100.00;76956.13;5052323;28;19916;-84
2021/09/29 07:31:47;;;;;;;;;;;;;;;-142.75;100.00;76924.63;5052414;28;19921;-86
2021/09/29 07:34:12;;;;;;;;;;;;;;;-142.75;100.00;76932.50;5052227;28;19943;-83
2021/09/29 07:36:40;;;;;;;;;;;;;;;-142.75;100.00;76930.53;5068945;28;20426;-84
2021/09/29 07:39:06;;;;;;;;;;;;;;;-142.75;100.00;76952.19;5067237;28;19916;-83
2021/09/29 07:41:31;;;;;;;;;;;;;;;-142.75;100.00;76967.94;5050218;28;19924;-83
2021/09/29 07:43:56;;;;;;;;;;;;;;;-142.75;100.00;76967.94;5072409;28;20051;-85
2021/09/29 07:46:22;;;;;;;;;;;;;;;-142.75;100.00;76979.75;5053138;28;19917;-83
2021/09/29 07:48:47;;;;;;;;;;;;;;;-142.75;100.00;76965.97;5054675;28;19920;-82
2021/09/29 07:51:15;;;;;;;;;;;;;;;-142.75;100.00;76960.06;5067560;28;19923;-83
2021/09/29 07:53:41;;;;;;;;;;;;;;;-142.75;100.00;76950.22;5051775;28;19917;-86
2021/09/29 07:56:07;;;;;;;;;;;;;;;-142.75;100.00;76942.34;5052293;28;20417;-82
2021/09/29 07:58:33;;;;;;;;;;;;;;;-142.75;100.00;76936.44;5047073;28;19924;-82
2021/09/29 08:00:58;;;;;;;;;;;;;;;-142.75;100.00;76948.25;5051693;28;19935;-80
2021/09/29 08:03:23;;;;;;;;;;;;;;;-142.75;100.00;76946.28;5069405;28;20357;-82
2021/09/29 08:05:52;;;;;;;;;;;;;;;-142.75;100.00;76940.38;5050486;28;20312;-83
2021/09/29 08:08:17;;;;;;;;;;;;;;;-142.75;100.00;76938.41;5073247;28;19955;-83
2021/09/29 08:10:42;;;;;;;;;;;;;;;-142.75;100.00;76952.19;5067993;28;19917;-86
2021/09/29 08:13:08;;;;;;;;;;;;;;;-142.75;100.00;76944.31;5042625;28;19917;-82
2021/09/29 08:15:33;;;;;;;;;;;;;;;-142.75;100.00;76948.25;5068488;28;19921;-87
2021/09/29 08:17:58;;;;;;;;;;;;;;;-142.75;100.00;76940.38;5045104;28;19916;-85
2021/09/29 08:20:26;;;;;;;;;;;;;;;-142.75;100.00;76932.50;5048574;28;19917;-84
2021/09/29 08:26:18;;;;;;;;;;;;;;;-142.75;100.00;76948.25;5067453;28;19924;-85
2021/09/29 08:28:45;;;;;;;;;;;;;;;-142.75;100.00;76962.03;5062063;28;19966;-87
2021/09/29 08:31:51;;;;;;;;;;;;;;;-142.75;100.00;76960.06;5093463;23;19924;-79
2021/09/29 08:36:37;;;;;;;;;;;;;;;-142.75;100.00;76977.78;5103888;28;20012;-78
2021/09/29 08:39:19;;;;;;;;;;;;;;;-142.75;100.00;76985.66;5086587;28;19923;-78
2021/09/29 08:49:42;;;;;;;;;;;;;;;-142.75;100.00;76997.47;5104693;28;20010;-79
2021/09/29 08:57:33;;;;;;;;;;;;;;;-142.75;100.00;77007.31;5102626;28;19973;-80
2021/09/29 09:16:30;;;;;;;;;;;;;;;-142.75;100.00;77023.06;5107474;28;20060;-78
2021/09/29 09:18:56;;;;;;;;;;;;;;;-142.75;100.00;77040.78;5100269;28;20601;-79
2021/09/29 09:21:22;;;;;;;;;;;;;;;-142.75;100.00;77030.94;5102752;28;19923;-79
2021/09/29 09:23:47;;;;;;;;;;;;;;;-142.75;100.00;77023.06;5103563;28;19995;-78
2021/09/29 09:26:16;;;;;;;;;;;;;;;-142.75;100.00;77042.75;5104372;28;19915;-80
2021/09/29 09:28:42;;;;;;;;;;;;;;;-142.75;100.00;77038.81;5082539;28;19947;-79
2021/09/29 09:31:12;;;;;;;;;;;;;;;-142.75;100.00;77062.44;5087806;28;19916;-79
2021/09/29 09:33:46;;;;;;;;;;;;;;;-142.75;100.00;77091.97;5102686;28;19923;-77
2021/09/29 09:36:12;;;;;;;;;;;;;;;-142.75;100.00;77086.06;5086004;28;20008;-79
2021/09/29 09:38:41;;;;;;;;;;;;;;;-142.75;100.00;77115.59;5083917;28;20373;-79
2021/09/29 09:41:06;;;;;;;;;;;;;;;-142.75;100.00;77099.84;5086834;28;20388;-79
2021/09/29 09:43:31;;;;;;;;;;;;;;;-142.75;100.00;77090.00;5081313;28;19916;-80
2021/09/29 09:45:58;;;;;;;;;;;;;;;-142.75;100.00;77109.69;5105323;28;19924;-79
2021/09/29 09:48:25;;;;;;;;;;;;;;;-142.75;100.00;77107.72;5084604;28;20023;-80
2021/09/29 09:50:53;;;;;;;;;;;;;;;-142.75;100.00;77117.56;5106245;28;19928;-82
2021/09/29 09:53:19;;;;;;;;;;;;;;;-142.75;100.00;77127.41;5103942;28;19923;-79
2021/09/29 09:55:44;;;;;;;;;;;;;;;-142.75;100.00;77149.06;5090959;28;19924;-80
2021/09/29 09:58:10;;;;;;;;;;;;;;;-142.75;100.00;77137.25;5108163;28;19922;-78
2021/09/29 10:00:36;;;;;;;;;;;;;;;-142.75;100.00;77143.16;5084983;28;19916;-77
2021/09/29 10:03:02;;;;;;;;;;;;;;;-142.75;100.00;77145.13;5109120;28;19916;-79
2021/09/29 10:05:29;;;;;;;;;;;;;;;-142.75;100.00;77125.44;5105964;28;19923;-77
2021/09/29 10:07:55;;;;;;;;;;;;;;;-142.75;100.00;77105.75;5101970;28;20388;-78
2021/09/29 10:10:28;;;;;;;;;;;;;;;-142.75;100.00;77107.72;5090449;28;19969;-77
2021/09/29 10:24:09;;;;;;;;;;;;;;;-142.75;100.00;76985.66;5103101;28;20019;-79
2021/09/29 10:26:35;;;;;;;;;;;;;;;-142.75;100.00;76987.63;5105476;28;20632;-80
2021/09/29 10:29:03;;;;;;;;;;;;;;;-142.75;100.00;76958.09;5112194;28;19915;-80
2021/09/29 10:34:35;;;;;;;;;;;;;;;-142.75;100.00;76893.13;5105651;28;20330;-80
2021/09/29 10:37:26;;;;;;;;;;;;;;;-142.75;100.00;76867.53;5108419;28;19973;-79
2021/09/29 10:42:52;;;;;;;;;;;;;;;-142.75;100.00;76834.06;5105829;28;19981;-79
2021/09/29 10:48:24;;;;;;;;;;;;;;;-142.75;97.98;76820.28;5107210;28;19954;-77
2021/09/29 11:08:15;;;;;;;;;;;;;;;-142.75;83.75;76778.97;5081465;28;19922;-79
2021/09/29 11:11:04;;;;;;;;;;;;;;;-142.75;81.14;76798.66;5103173;28;20512;-79
2021/09/29 11:27:41;;;;;;;;;;;;;;;-142.75;66.66;76397.06;5106484;28;19975;-79
2021/09/29 11:30:18;;;;;;;;;;;;;;;-142.75;64.24;76308.50;5085702;28;19916;-81
2021/09/29 11:32:58;;;;;;;;;;;;;;;-142.75;60.15;76373.44;5087907;28;19924;-78
2021/09/29 11:35:36;;;;;;;;;;;;;;;-142.75;59.47;76467.94;5087352;28;19924;-78
2021/09/29 12:10:30;;;;;;;;;;;;;;;-142.75;67.82;76719.91;5103702;28;19924;-79
2021/09/29 12:12:56;;;;;;;;;;;;;;;-142.75;67.86;76682.50;5083166;28;19916;-82
2021/09/29 12:15:22;;;;;;;;;;;;;;;-142.75;66.79;76664.78;5086271;28;20293;-81
2021/09/29 12:17:50;;;;;;;;;;;;;;;-142.75;66.73;76664.78;5089989;28;19916;-80
2021/09/29 12:20:19;;;;;;;;;;;;;;;-142.75;64.72;76690.38;5087069;28;19916;-79
2021/09/29 12:22:53;;;;;;;;;;;;;;;-142.75;65.44;76739.59;5104429;28;20010;-79
2021/09/29 12:25:32;;;;;;;;;;;;;;;-142.75;64.42;76810.44;5104433;28;19986;-77
2021/09/29 12:28:15;;;;;;;;;;;;;;;-142.75;65.53;76820.28;5104959;28;19923;-78
2021/09/29 12:30:48;;;;;;;;;;;;;;;-142.75;66.30;76836.03;5100608;28;19916;-79
2021/09/29 12:35:45;;;;;;;;;;;;;;;-142.75;66.80;76873.44;5106732;28;19971;-79
2021/09/29 12:38:11;;;;;;;;;;;;;;;-142.75;63.71;76887.22;5083836;28;19923;-79
2021/09/29 12:40:37;;;;;;;;;;;;;;;-142.75;65.50;76906.91;5084646;28;19969;-78
2021/09/29 12:43:09;;;;;;;;;;;;;;;-142.75;65.59;76889.19;5105085;28;19955;-80
2021/09/29 12:45:36;;;;;;;;;;;;;;;-142.75;65.16;76875.41;5103715;28;19915;-78
2021/09/29 12:48:02;;;;;;;;;;;;;;;-142.75;65.98;76885.25;5104445;28;19919;-79
2021/09/29 12:55:45;;;;;;;;;;;;;;;-142.75;65.92;76889.19;5103428;28;19945;-78
2021/09/29 12:58:11;;;;;;;;;;;;;;;-142.75;65.14;76899.03;5099852;28;19955;-78
2021/09/29 13:00:36;;;;;;;;;;;;;;;-142.75;65.28;76895.09;5101765;28;19923;-78
2021/09/29 13:03:05;;;;;;;;;;;;;;;-142.75;62.80;76916.75;5081959;28;20002;-78
2021/09/29 13:05:30;;;;;;;;;;;;;;;-142.75;61.79;76938.41;5102410;28;19916;-79
2021/09/29 13:07:55;;;;;;;;;;;;;;;-142.75;63.29;76932.50;5103043;28;19915;-82
2021/09/29 13:10:20;;;;;;;;;;;;;;;-142.75;64.41;76924.63;5085838;28;19947;-80
2021/09/29 13:12:45;;;;;;;;;;;;;;;-142.75;64.09;76934.47;5104525;28;19916;-78
2021/09/29 13:15:11;;;;;;;;;;;;;;;-142.75;63.41;76928.56;5103729;28;19926;-79
2021/09/29 13:17:36;;;;;;;;;;;;;;;-142.75;62.39;76940.38;5103738;28;19915;-79
2021/09/29 13:20:02;;;;;;;;;;;;;;;-142.75;62.89;76916.75;5085590;28;19922;-79
2021/09/29 13:22:28;;;;;;;;;;;;;;;-142.75;61.23;76912.81;5084746;28;19916;-78
2021/09/29 13:25:17;;;;;;;;;;;;;;;-142.75;61.81;76930.53;5102491;28;19916;-77
2021/09/29 13:38:24;;;;;;;;;;;;;;;-142.75;65.48;77017.16;5106439;28;21196;-79
2021/09/29 13:40:50;;;;;;;;;;;;;;;-142.75;65.26;77027.00;5085676;28;19924;-79
2021/09/29 13:43:15;;;;;;;;;;;;;;;-142.75;65.52;77034.88;5103080;28;19922;-80
2021/09/29 13:45:40;;;;;;;;;;;;;;;-142.75;65.26;77054.56;5107212;28;19916;-77
2021/09/29 13:48:06;;;;;;;;;;;;;;;-142.75;65.76;77050.63;5101507;28;19916;-78
2021/09/29 13:50:31;;;;;;;;;;;;;;;-142.75;65.59;77062.44;5102007;28;19962;-78
2021/09/29 13:52:58;;;;;;;;;;;;;;;-142.75;65.10;77050.63;5087489;28;20002;-78
2021/09/29 13:55:25;;;;;;;;;;;;;;;-142.75;65.03;77038.81;5105342;28;19970;-78
2021/09/29 13:58:23;;;;;;;;;;;;;;;-142.75;65.62;77017.16;5099123;28;19920;-80
2021/09/29 14:30:32;;;;;;;;;;;;;;;-142.75;64.16;77032.91;5127829;22;19935;-80
2021/09/29 14:35:22;;;;;;;;;;;;;;;-142.75;63.20;77050.63;5109154;28;19923;-81
2021/09/29 14:37:49;;;;;;;;;;;;;;;-142.75;63.56;77032.91;5091586;28;20392;-82
2021/09/29 14:40:14;;;;;;;;;;;;;;;-142.75;64.53;77042.75;5092243;28;19916;-80
2021/09/29 14:42:40;;;;;;;;;;;;;;;-142.75;63.29;77056.53;5099008;28;20350;-80
2021/09/29 14:45:05;;;;;;;;;;;;;;;-142.75;63.53;77066.38;5090879;28;20003;-82
2021/09/29 14:47:30;;;;;;;;;;;;;;;-142.75;64.35;77070.31;5076185;28;19946;-81
2021/09/29 14:49:56;;;;;;;;;;;;;;;-142.75;64.07;77101.81;5094576;28;19941;-79
2021/09/29 14:52:22;;;;;;;;;;;;;;;-142.75;70.62;77158.91;5095208;28;19919;-81
2021/09/29 14:54:47;;;;;;;;;;;;;;;-142.75;74.10;77231.75;5077611;28;19920;-86
2021/09/29 14:57:13;;;;;;;;;;;;;;;-142.75;76.38;77282.94;5071120;28;19916;-81
2021/09/29 14:59:43;;;;;;;;;;;;;;;-142.75;81.48;77318.38;5074310;28;19917;-84
2021/09/29 15:02:08;;;;;;;;;;;;;;;-142.75;78.96;77342.00;5091034;28;19927;-83
2021/09/29 15:04:34;;;;;;;;;;;;;;;-142.75;78.49;77369.56;5069750;28;19916;-84
2021/09/29 15:06:59;;;;;;;;;;;;;;;-142.75;79.17;77373.50;5072084;28;19970;-83
2021/09/29 15:09:24;;;;;;;;;;;;;;;-142.75;79.57;77381.38;5069151;28;19916;-85